Time;durP1;ratioP1;P1;durP2;ratioP2;P2;SDS_P1;SDS_P2;PMS_P1;PMS_P2;Temp;Humidity;BMP_temperature;BMP_pressure;BME280_temperature;BME280_humidity;BME280_pressure;Samples;Min_cycle;Max_cycle;Signal;HPM_P1;HPM_P2
2021/10/26 00:01:55;;;;;;;19.30;9.32;;;;;;;2.02;95.52;101038.94;6297728;28;20072;-72
2021/10/26 00:04:56;;;;;;;20.65;9.38;;;;;;;1.94;95.49;101043.31;6297606;28;20044;-72
2021/10/26 00:07:56;;;;;;;16.05;9.85;;;;;;;1.86;97.38;101035.66;6279862;28;20070;-73
2021/10/26 00:10:57;;;;;;;15.43;8.23;;;;;;;1.81;97.74;101040.84;6297248;28;20425;-73
2021/10/26 00:13:58;;;;;;;20.23;9.50;;;;;;;1.77;97.93;101028.00;6296324;28;20127;-72
2021/10/26 00:17:00;;;;;;;17.00;8.77;;;;;;;1.77;97.98;101038.28;6279557;28;20067;-72
2021/10/26 00:20:02;;;;;;;16.95;9.80;;;;;;;1.77;98.88;101028.00;6297465;28;20094;-72
2021/10/26 00:23:03;;;;;;;;;;;;;;;1.77;97.85;101030.56;6296583;28;20055;-72
2021/10/26 00:26:04;;;;;;;25.48;12.27;;;;;;;1.76;98.05;101026.31;6297273;28;19920;-72
2021/10/26 00:29:05;;;;;;;21.10;12.05;;;;;;;1.67;100.00;101034.97;6279479;28;20063;-72
2021/10/26 00:32:06;;;;;;;21.15;11.18;;;;;;;1.70;99.65;101028.94;6295883;28;20082;-72
2021/10/26 00:35:08;;;;;;;21.08;11.88;;;;;;;1.66;99.80;101017.81;6295877;28;20468;-72
2021/10/26 00:38:08;;;;;;;26.88;11.50;;;;;;;1.61;98.39;101020.44;6297054;28;20463;-72
2021/10/26 00:41:09;;;;;;;19.20;11.15;;;;;;;1.57;98.80;101013.59;6297125;28;20174;-72
2021/10/26 00:44:10;;;;;;;21.55;11.25;;;;;;;1.55;99.59;101014.50;6295515;28;20502;-72
2021/10/26 00:47:11;;;;;;;17.45;10.00;;;;;;;1.53;98.78;101008.50;6295923;28;20053;-72
2021/10/26 00:50:12;;;;;;;22.40;10.88;;;;;;;1.51;98.78;101015.38;6294833;28;20040;-72
2021/10/26 00:53:17;;;;;;;19.10;10.50;;;;;;;1.46;99.35;101012.84;6295696;28;20052;-72
2021/10/26 00:56:19;;;;;;;21.67;11.55;;;;;;;1.40;98.99;101013.75;6295709;28;20044;-73
2021/10/26 00:59:20;;;;;;;20.83;10.40;;;;;;;1.35;100.00;101017.22;6279160;28;20041;-72
2021/10/26 01:02:21;;;;;;;22.50;11.00;;;;;;;1.28;100.00;101002.72;6295653;28;20051;-72
2021/10/26 01:05:22;;;;;;;21.30;10.27;;;;;;;1.23;100.00;101007.03;6296644;28;20114;-73
2021/10/26 01:08:23;;;;;;;19.77;9.50;;;;;;;1.24;100.00;101001.03;6296777;28;20047;-73
2021/10/26 01:11:24;;;;;;;18.08;9.52;;;;;;;1.27;100.00;101004.41;6279013;28;20086;-72
2021/10/26 01:14:25;;;;;;;19.30;9.35;;;;;;;1.28;100.00;101005.28;6295672;28;20072;-73
2021/10/26 01:17:27;;;;;;;18.27;9.40;;;;;;;1.22;100.00;101006.19;6296412;28;20049;-72
2021/10/26 01:20:27;;;;;;;21.45;9.35;;;;;;;1.17;100.00;100998.50;6295574;28;20049;-72
2021/10/26 01:23:28;;;;;;;18.98;9.38;;;;;;;1.14;100.00;101000.25;6295617;28;20055;-76
2021/10/26 01:26:32;;;;;;;19.30;9.02;;;;;;;1.03;100.00;100996.88;6297492;28;20037;-76
2021/10/26 01:29:33;;;;;;;16.38;9.48;;;;;;;1.00;100.00;100998.59;6297317;28;20384;-76
2021/10/26 01:32:34;;;;;;;19.73;9.70;;;;;;;0.99;100.00;100994.34;6279408;28;20079;-76
2021/10/26 01:35:36;;;;;;;19.48;10.27;;;;;;;1.01;100.00;100991.75;6297433;28;20041;-76
2021/10/26 01:38:37;;;;;;;18.88;9.70;;;;;;;1.02;100.00;100995.19;6279298;28;20040;-76
2021/10/26 01:41:38;;;;;;;22.77;10.40;;;;;;;0.95;100.00;100994.38;6296082;28;20052;-75
2021/10/26 01:44:39;;;;;;;18.92;10.20;;;;;;;0.84;100.00;100984.13;6279330;28;20118;-76
2021/10/26 01:47:41;;;;;;;17.15;9.35;;;;;;;0.81;100.00;100989.31;6279150;28;20447;-76
2021/10/26 01:50:42;;;;;;;19.60;10.05;;;;;;;0.68;100.00;100985.09;6298989;28;20106;-76
2021/10/26 01:53:43;;;;;;;20.65;10.57;;;;;;;0.77;100.00;100979.91;6300435;28;20045;-75
2021/10/26 01:56:44;;;;;;;20.25;10.15;;;;;;;0.75;100.00;100976.50;6301392;28;20102;-77
2021/10/26 01:59:45;;;;;;;19.77;9.82;;;;;;;0.80;100.00;100972.16;6283667;28;20544;-75
2021/10/26 02:02:50;;;;;;;16.85;9.88;;;;;;;0.75;100.00;100969.63;6300083;28;20040;-75
2021/10/26 02:05:51;;;;;;;19.63;9.65;;;;;;;0.69;100.00;100964.53;6300370;28;20601;-75
2021/10/26 02:08:52;;;;;;;18.02;10.05;;;;;;;0.63;100.00;100974.00;6300188;28;20045;-75
2021/10/26 02:11:52;;;;;;;23.25;11.25;;;;;;;0.66;100.00;100964.56;6283123;28;20114;-76
2021/10/26 02:14:53;;;;;;;24.67;12.75;;;;;;;0.69;100.00;100956.84;6301121;28;20446;-75
2021/10/26 02:17:54;;;;;;;56.13;21.98;;;;;;;0.72;100.00;100951.69;6283196;28;20036;-75
2021/10/26 02:20:55;;;;;;;48.45;20.73;;;;;;;0.62;100.00;100950.03;6300771;28;20043;-75
2021/10/26 02:23:56;;;;;;;52.65;22.30;;;;;;;0.61;100.00;100950.88;6283279;28;20078;-75
2021/10/26 02:26:57;;;;;;;55.13;23.13;;;;;;;0.54;100.00;100944.94;6301041;28;20131;-76
2021/10/26 02:29:58;;;;;;;48.17;22.20;;;;;;;0.54;100.00;100938.94;6299722;28;20051;-76
2021/10/26 02:32:59;;;;;;;44.17;20.52;;;;;;;0.54;100.00;100942.38;6299410;28;20068;-76
2021/10/26 02:36:01;;;;;;;40.78;18.60;;;;;;;0.45;100.00;100942.41;6300686;28;20064;-77
2021/10/26 02:39:04;;;;;;;36.90;15.95;;;;;;;0.46;100.00;100940.72;6299478;28;20041;-76
2021/10/26 02:42:05;;;;;;;35.92;16.27;;;;;;;0.58;100.00;100940.66;6299089;28;20052;-76
2021/10/26 02:45:07;;;;;;;34.47;15.13;;;;;;;0.60;100.00;100942.34;6300267;28;20118;-76
2021/10/26 02:48:07;;;;;;;33.45;14.55;;;;;;;0.50;100.00;100932.97;6299402;28;20049;-76
2021/10/26 02:51:10;;;;;;;23.80;12.13;;;;;;;0.58;100.00;100938.06;6282035;28;20051;-76
2021/10/26 02:54:10;;;;;;;26.52;13.15;;;;;;;0.62;100.00;100941.47;6299027;28;20045;-77
2021/10/26 02:57:11;;;;;;;25.77;12.30;;;;;;;0.53;100.00;100939.81;6282171;28;20080;-76
2021/10/26 03:00:13;;;;;;;22.33;11.15;;;;;;;0.55;100.00;100938.06;6300045;28;20475;-76
2021/10/26 03:03:14;;;;;;;27.73;11.77;;;;;;;0.48;100.00;100932.13;6280928;28;20094;-76
2021/10/26 03:06:15;;;;;;;23.98;11.52;;;;;;;0.58;100.00;100938.06;6264954;28;20040;-76
2021/10/26 03:09:16;;;;;;;30.05;11.02;;;;;;;0.58;100.00;100935.50;6297983;28;20119;-76
2021/10/26 03:12:17;;;;;;;24.15;10.35;;;;;;;0.69;100.00;100940.56;6297797;28;20037;-76
2021/10/26 03:15:18;;;;;;;23.10;12.05;;;;;;;0.72;100.00;100927.69;6299428;28;20062;-76
2021/10/26 03:18:19;;;;;;;23.90;11.38;;;;;;;0.58;100.00;100925.22;6298556;28;20041;-76
2021/10/26 03:21:19;;;;;;;22.17;10.77;;;;;;;0.49;100.00;100927.84;6281610;28;20383;-76
2021/10/26 03:24:20;;;;;;;23.75;11.10;;;;;;;0.45;100.00;100929.56;6298051;28;20044;-76
2021/10/26 03:27:22;;;;;;;20.30;10.70;;;;;;;0.36;100.00;100938.16;6298219;28;20459;-76
2021/10/26 03:30:23;;;;;;;23.30;10.57;;;;;;;0.38;100.00;100936.44;6298112;28;20045;-76
2021/10/26 03:33:23;;;;;;;22.17;10.80;;;;;;;0.38;100.00;100926.19;6297805;28;20094;-76
2021/10/26 03:36:24;;;;;;;19.52;10.93;;;;;;;0.27;100.00;100930.53;6297856;28;20110;-76
2021/10/26 03:39:25;;;;;;;23.88;11.60;;;;;;;0.26;100.00;100931.38;6299003;28;20040;-76
2021/10/26 03:42:26;;;;;;;19.55;10.50;;;;;;;0.30;100.00;100935.63;6281318;28;20115;-76
2021/10/26 03:45:27;;;;;;;18.98;10.90;;;;;;;0.28;100.00;100928.81;6280835;28;20102;-76
2021/10/26 03:48:28;;;;;;;24.05;10.68;;;;;;;0.26;100.00;100925.41;6298476;28;20053;-76
2021/10/26 03:51:30;;;;;;;19.67;9.93;;;;;;;0.32;100.00;100928.78;6297489;28;20039;-76
2021/10/26 03:54:31;;;;;;;23.27;10.68;;;;;;;0.17;100.00;100927.16;6298574;28;20041;-76
2021/10/26 03:57:32;;;;;;;26.70;13.38;;;;;;;0.03;100.00;100922.94;6297569;28;20051;-76
2021/10/26 04:00:33;;;;;;;24.55;12.75;;;;;;;0.11;100.00;100909.19;6280667;28;20036;-76
2021/10/26 04:03:34;;;;;;;31.08;15.18;;;;;;;0.09;100.00;100913.50;6297405;28;20048;-76
2021/10/26 04:06:35;;;;;;;27.80;15.48;;;;;;;0.03;100.00;100910.94;6298502;28;20040;-76
2021/10/26 04:09:49;;;;;;;30.27;14.40;;;;;;;-0.13;100.00;100915.28;6297348;28;20045;-76
2021/10/26 04:12:49;;;;;;;29.02;13.07;;;;;;;-0.09;100.00;100921.25;6298200;28;20483;-76
2021/10/26 04:15:51;;;;;;;24.35;12.00;;;;;;;-0.03;100.00;100910.97;6297967;28;20047;-76
2021/10/26 04:18:52;;;;;;;27.53;13.87;;;;;;;-0.13;100.00;100914.44;6296512;28;20446;-76
2021/10/26 04:21:53;;;;;;;26.98;13.80;;;;;;;-0.16;100.00;100917.00;6297522;28;20045;-76
2021/10/26 04:24:54;;;;;;;26.20;13.63;;;;;;;-0.12;100.00;100923.84;6279792;28;20045;-78
2021/10/26 04:27:54;;;;;;;28.13;14.35;;;;;;;-0.17;100.00;100918.72;6279850;28;20403;-76
2021/10/26 04:30:58;;;;;;;24.17;12.30;;;;;;;-0.23;100.00;100918.72;6295172;28;20067;-72
2021/10/26 04:33:58;;;;;;;25.13;12.75;;;;;;;-0.19;100.00;100915.28;6294902;28;20518;-72
2021/10/26 04:36:59;;;;;;;25.38;13.80;;;;;;;-0.24;100.00;100915.31;6294952;28;20036;-72
2021/10/26 04:40:02;;;;;;;26.10;12.98;;;;;;;-0.26;100.00;100919.59;6295953;28;20036;-71
2021/10/26 04:43:03;;;;;;;;;;;;;;;-0.33;100.00;100910.22;6296532;28;20045;-72
2021/10/26 04:46:04;;;;;;;24.33;13.15;;;;;;;-0.32;100.00;100911.06;6294783;28;19924;-72
2021/10/26 04:49:04;;;;;;;27.88;12.95;;;;;;;-0.32;100.00;100903.38;6294695;28;20052;-72
2021/10/26 04:52:05;;;;;;;27.10;13.63;;;;;;;-0.26;100.00;100903.34;6271996;28;20454;-72
2021/10/26 04:55:07;;;;;;;27.80;14.38;;;;;;;-0.28;100.00;100912.78;6282187;28;20068;-72
2021/10/26 04:58:08;;;;;;;27.55;14.25;;;;;;;-0.29;100.00;100906.78;6295938;28;20510;-73
2021/10/26 05:01:09;;;;;;;30.92;13.35;;;;;;;-0.32;100.00;100905.94;6289651;28;20415;-73
2021/10/26 05:04:10;;;;;;;26.48;14.13;;;;;;;-0.38;100.00;100903.38;6270804;28;20041;-73
2021/10/26 05:07:12;;;;;;;24.27;13.35;;;;;;;-0.30;100.00;100904.22;6286124;28;20040;-74
2021/10/26 05:10:13;;;;;;;22.55;13.00;;;;;;;-0.35;100.00;100916.19;6294518;28;20047;-73
2021/10/26 05:13:14;;;;;;;27.10;13.33;;;;;;;-0.42;100.00;100915.34;6295559;28;20048;-74
2021/10/26 05:16:15;;;;;;;29.25;14.32;;;;;;;-0.45;100.00;100916.22;6291678;28;20060;-75
2021/10/26 05:19:17;;;;;;;25.75;13.93;;;;;;;-0.45;100.00;100917.94;6253033;28;20048;-73
2021/10/26 05:22:19;;;;;;;29.92;12.77;;;;;;;-0.42;100.00;100920.47;6269660;28;20049;-72
2021/10/26 05:25:20;;;;;;;32.33;14.93;;;;;;;-0.41;100.00;100923.06;6272409;28;20045;-73
2021/10/26 05:28:20;;;;;;;33.00;17.17;;;;;;;-0.47;100.00;100920.50;6275511;28;20049;-72
2021/10/26 05:31:21;;;;;;;40.45;18.63;;;;;;;-0.44;100.00;100917.06;6265216;28;20047;-73
2021/10/26 05:34:23;;;;;;;37.15;18.48;;;;;;;-0.42;100.00;100925.63;6274428;28;20033;-73
2021/10/26 05:37:23;;;;;;;32.78;18.20;;;;;;;-0.38;100.00;100921.34;6299674;28;20094;-73
2021/10/26 05:40:24;;;;;;;31.42;18.33;;;;;;;-0.30;100.00;100932.44;6299514;28;20041;-73
2021/10/26 05:43:26;;;;;;;47.85;23.30;;;;;;;-0.31;100.00;100928.16;6298669;28;20044;-74
2021/10/26 05:46:26;;;;;;;40.25;21.20;;;;;;;-0.14;100.00;100930.69;6299603;28;20067;-74
2021/10/26 05:49:27;;;;;;;32.47;18.20;;;;;;;-0.10;100.00;100932.38;6299355;28;20487;-73
2021/10/26 05:52:28;;;;;;;42.97;19.23;;;;;;;-0.14;100.00;100940.97;6299330;28;20127;-73
2021/10/26 05:55:29;;;;;;;36.70;18.00;;;;;;;-0.08;100.00;100934.09;6281626;28;20044;-73
2021/10/26 05:58:30;;;;;;;40.35;19.65;;;;;;;-0.01;100.00;100945.19;6298363;28;20067;-75
2021/10/26 06:01:30;;;;;;;34.30;17.35;;;;;;;0.05;100.00;100945.16;6299189;28;20071;-75
2021/10/26 06:04:31;;;;;;;40.40;18.35;;;;;;;0.12;100.00;100948.53;6298019;28;20057;-73
2021/10/26 06:07:32;;;;;;;38.95;17.98;;;;;;;0.26;100.00;100949.34;6297888;28;20086;-75
2021/10/26 06:10:36;;;;;;;32.00;18.67;;;;;;;0.33;100.00;100952.72;6281223;28;20079;-73
2021/10/26 06:13:44;;;;;;;33.92;19.10;;;;;;;0.32;100.00;100951.88;6297770;28;20475;-73
2021/10/26 06:16:45;;;;;;;37.25;19.08;;;;;;;0.39;100.00;100947.56;6299000;28;20046;-73
2021/10/26 06:19:46;;;;;;;36.83;18.25;;;;;;;0.49;100.00;100953.53;6297563;28;20110;-73
2021/10/26 06:22:47;;;;;;;32.75;17.35;;;;;;;0.56;100.00;100963.75;6297571;28;20087;-73
2021/10/26 06:25:48;;;;;;;76.93;32.75;;;;;;;0.67;100.00;100966.25;6298618;28;20132;-73
2021/10/26 06:28:49;;;;;;;66.75;29.58;;;;;;;0.80;100.00;100967.91;6297295;28;20039;-73
2021/10/26 06:31:50;;;;;;;51.10;25.05;;;;;;;1.02;100.00;100970.31;6297268;28;20498;-73
2021/10/26 06:34:50;;;;;;;38.78;21.90;;;;;;;1.18;100.00;100984.78;6298394;28;20040;-73
2021/10/26 06:37:51;;;;;;;47.33;20.85;;;;;;;1.40;100.00;100975.19;6297063;28;20472;-73
2021/10/26 06:40:52;;;;;;;53.00;23.80;;;;;;;1.57;100.00;100967.31;6296954;28;20058;-73
2021/10/26 06:43:53;;;;;;;49.17;22.95;;;;;;;1.84;100.00;100972.19;6298363;28;20078;-73
2021/10/26 06:46:54;;;;;;;45.45;22.17;;;;;;;2.01;100.00;100972.88;6280052;28;20110;-73
2021/10/26 06:49:54;;;;;;;36.78;19.33;;;;;;;2.16;100.00;100979.56;6280271;28;20043;-73
2021/10/26 06:52:55;;;;;;;32.10;14.90;;;;;;;2.41;100.00;100973.25;6296651;28;20518;-73
2021/10/26 06:56:03;;;;;;;25.23;13.73;;;;;;;2.61;99.75;100974.69;6298067;28;20040;-73
2021/10/26 06:59:04;;;;;;;35.20;18.42;;;;;;;2.82;98.21;100976.13;6265520;28;20040;-73
2021/10/26 07:02:05;;;;;;;41.67;17.60;;;;;;;2.97;98.59;100972.50;6296532;28;20048;-73
2021/10/26 07:05:07;;;;;;;30.90;15.95;;;;;;;3.14;96.15;100974.81;6296595;28;20048;-73
2021/10/26 07:08:08;;;;;;;25.48;16.00;;;;;;;3.33;94.16;100983.09;6280087;28;20048;-73
2021/10/26 07:11:11;;;;;;;31.27;17.42;;;;;;;3.54;90.51;100968.97;6296447;28;20091;-73
2021/10/26 07:14:12;;;;;;;37.00;17.92;;;;;;;3.75;90.42;100981.53;6296921;28;20479;-76
2021/10/26 07:17:13;;;;;;;35.95;19.23;;;;;;;3.98;89.38;100975.09;6297033;28;20068;-76
2021/10/26 07:20:15;;;;;;;49.60;23.95;;;;;;;4.11;88.58;100970.53;6298170;28;20063;-76
2021/10/26 07:23:16;;;;;;;38.55;20.70;;;;;;;4.22;86.91;100974.59;6298300;28;20067;-76
2021/10/26 07:26:21;;;;;;;29.98;16.20;;;;;;;4.39;87.11;100974.25;6296678;28;20476;-76
2021/10/26 07:29:22;;;;;;;29.73;15.68;;;;;;;4.60;86.09;100980.69;6274272;28;20094;-76
2021/10/26 07:32:23;;;;;;;30.30;15.40;;;;;;;4.67;83.81;100980.56;6277827;28;20557;-77
2021/10/26 07:35:29;;;;;;;31.90;15.20;;;;;;;4.68;83.35;100987.47;6293145;28;20127;-77
2021/10/26 07:38:41;;;;;;;31.23;15.63;;;;;;;4.81;84.87;100975.94;6284101;28;20086;-76
2021/10/26 07:41:41;;;;;;;35.90;16.10;;;;;;;5.02;83.83;100977.19;6296712;28;20052;-77
2021/10/26 07:44:47;;;;;;;29.25;15.63;;;;;;;5.23;82.27;100979.28;6297110;28;20313;-75
2021/10/26 07:47:48;;;;;;;34.45;16.50;;;;;;;5.27;81.08;100974.00;6296328;28;20246;-73
2021/10/26 07:50:48;;;;;;;29.42;16.40;;;;;;;5.49;80.91;100967.41;6296764;28;20487;-73
2021/10/26 07:53:50;;;;;;;26.92;15.82;;;;;;;5.76;77.98;100965.00;6278801;28;20045;-73
2021/10/26 07:56:51;;;;;;;28.57;16.50;;;;;;;5.97;76.72;100966.19;6296765;28;20079;-73
2021/10/26 07:59:53;;;;;;;30.50;16.60;;;;;;;6.16;76.65;100963.97;6295305;28;20048;-73
2021/10/26 08:02:54;;;;;;;32.13;17.47;;;;;;;6.36;74.97;100966.84;6286443;28;20048;-73
2021/10/26 08:05:54;;;;;;;40.25;18.50;;;;;;;6.62;75.45;100957.44;6253811;28;20839;-73
2021/10/26 08:08:55;;;;;;;48.72;24.13;;;;;;;6.86;75.17;100959.28;6270544;28;20037;-73
2021/10/26 08:11:56;;;;;;;36.58;18.27;;;;;;;6.99;73.08;100961.47;6263614;28;20037;-73
2021/10/26 08:14:57;;;;;;;42.22;20.50;;;;;;;7.00;71.18;100957.97;6273645;28;20094;-73
2021/10/26 08:17:58;;;;;;;38.92;19.80;;;;;;;7.22;71.29;100964.19;6239499;28;20128;-73
2021/10/26 08:20:58;;;;;;;33.20;17.95;;;;;;;7.57;73.91;100969.09;6294343;28;20094;-73
2021/10/26 08:24:00;;;;;;;44.40;19.80;;;;;;;7.88;69.98;100963.69;6294932;28;20036;-73
2021/10/26 08:27:04;;;;;;;33.05;18.65;;;;;;;8.11;68.94;100972.41;6283048;28;20073;-73
2021/10/26 08:33:39;;;;;;;36.33;20.05;;;;;;;8.60;67.89;100965.44;6266167;28;20098;-73
2021/10/26 08:36:40;;;;;;;34.08;19.48;;;;;;;8.62;64.21;100967.06;6271210;28;20048;-73
2021/10/26 08:39:42;;;;;;;35.15;19.58;;;;;;;8.86;65.34;100959.22;6269877;28;20041;-73
2021/10/26 08:42:45;;;;;;;51.08;19.77;;;;;;;9.14;65.92;100955.50;6270981;28;20041;-73
2021/10/26 08:45:48;;;;;;;34.47;18.73;;;;;;;9.30;63.03;100956.56;6270939;28;20510;-73
2021/10/26 08:48:51;;;;;;;43.30;23.98;;;;;;;9.44;62.61;100956.84;6270883;28;20052;-73
2021/10/26 08:51:53;;;;;;;43.20;21.42;;;;;;;9.68;61.58;100957.56;6253206;28;20120;-73
2021/10/26 08:54:54;;;;;;;42.17;18.35;;;;;;;9.87;61.66;100948.97;6269844;28;20041;-73
2021/10/26 08:57:55;;;;;;;38.00;19.70;;;;;;;10.03;60.96;100959.56;6269725;28;20045;-73
2021/10/26 09:01:00;;;;;;;35.67;17.73;;;;;;;10.28;59.18;100952.31;6273505;28;20037;-73
2021/10/26 09:04:11;;;;;;;29.75;17.60;;;;;;;10.41;59.77;100952.63;6288494;28;20045;-73
2021/10/26 09:07:18;;;;;;;34.40;19.33;;;;;;;10.33;57.44;100952.13;6291337;28;20045;-73
2021/10/26 09:10:19;;;;;;;34.30;17.92;;;;;;;10.23;57.47;100946.50;6300622;28;20123;-74
2021/10/26 09:16:50;;;;;;;33.63;17.40;;;;;;;10.89;58.30;100947.78;6279221;28;20041;-73
2021/10/26 09:19:52;;;;;;;36.65;18.13;;;;;;;11.11;56.84;100958.03;6275618;28;20096;-73
2021/10/26 09:22:56;;;;;;;37.28;18.55;;;;;;;11.24;56.95;100958.28;6286972;28;20051;-75
2021/10/26 09:25:58;;;;;;;33.65;17.40;;;;;;;11.48;55.02;100953.63;6292988;28;20053;-75
2021/10/26 09:28:59;;;;;;;32.47;17.70;;;;;;;11.59;53.33;100948.69;6260808;28;20051;-73
2021/10/26 09:32:10;;;;;;;28.10;17.48;;;;;;;11.69;54.20;100952.53;6276690;28;20044;-74
2021/10/26 09:35:14;;;;;;;33.22;16.42;;;;;;;11.88;54.91;100948.94;6275260;28;20091;-74
2021/10/26 09:38:26;;;;;;;24.08;15.60;;;;;;;12.12;53.65;100946.00;6275081;28;20511;-74
2021/10/26 09:41:27;;;;;;;32.40;16.23;;;;;;;12.26;52.47;100944.34;6274373;28;20045;-74
2021/10/26 09:44:32;;;;;;;28.58;15.25;;;;;;;12.38;50.54;100932.38;6273755;28;20423;-74
2021/10/26 09:47:37;;;;;;;25.63;16.15;;;;;;;12.40;50.53;100940.13;6273543;28;20079;-73
2021/10/26 09:50:38;;;;;;;26.30;14.95;;;;;;;12.54;50.61;100926.28;6275087;28;20045;-77
2021/10/26 09:53:39;;;;;;;24.77;14.35;;;;;;;12.67;50.72;100935.16;6258073;28;20442;-77
2021/10/26 09:56:40;;;;;;;34.28;14.40;;;;;;;12.85;49.23;100928.88;6275654;28;20170;-77
2021/10/26 09:59:49;;;;;;;27.45;14.25;;;;;;;12.99;49.06;100916.75;6257937;28;20419;-77
2021/10/26 10:03:05;;;;;;;27.48;14.48;;;;;;;13.15;49.15;100909.69;6275710;28;20049;-77
2021/10/26 10:06:06;;;;;;;27.83;13.77;;;;;;;12.72;48.15;100912.16;6275476;28;20041;-77
2021/10/26 10:09:19;;;;;;;28.27;14.93;;;;;;;13.20;49.57;100909.44;6274358;28;20041;-77
2021/10/26 10:12:22;;;;;;;28.20;14.30;;;;;;;13.37;47.65;100901.47;6274738;28;20118;-77
2021/10/26 10:15:23;;;;;;;33.60;15.43;;;;;;;13.48;47.80;100900.81;6274603;28;20048;-77
2021/10/26 10:18:24;;;;;;;31.88;13.88;;;;;;;13.72;45.86;100897.69;6275336;28;20068;-77
2021/10/26 10:21:29;;;;;;;21.58;13.02;;;;;;;13.86;44.97;100892.44;6275091;28;20048;-77
2021/10/26 10:24:38;;;;;;;35.38;13.48;;;;;;;13.88;44.86;100886.16;6273772;28;20492;-77
2021/10/26 10:27:43;;;;;;;26.35;13.98;;;;;;;13.93;46.50;100877.97;6273761;28;20040;-77
2021/10/26 10:30:44;;;;;;;32.85;13.88;;;;;;;14.06;46.28;100880.69;6274952;28;20090;-77
2021/10/26 10:33:48;;;;;;;26.70;13.55;;;;;;;14.15;43.54;100869.63;6273575;28;20041;-77
2021/10/26 10:36:52;;;;;;;24.38;13.00;;;;;;;14.03;44.17;100865.97;6241162;28;20045;-77
2021/10/26 10:40:02;;;;;;;22.40;13.60;;;;;;;14.32;43.42;100860.66;6273563;28;20037;-77
2021/10/26 10:43:03;;;;;;;31.70;12.65;;;;;;;14.52;43.42;100860.22;6273491;28;20143;-77
2021/10/26 10:46:03;;;;;;;21.35;11.57;;;;;;;14.64;42.20;100855.13;6273480;28;20552;-77
2021/10/26 10:49:37;;;;;;;28.65;16.77;;;;;;;14.63;42.08;100848.22;6279959;28;20045;-77
2021/10/26 10:52:37;;;;;;;27.02;14.98;;;;;;;14.18;42.51;100843.16;6278568;28;20487;-77
2021/10/26 10:55:42;;;;;;;26.83;16.58;;;;;;;13.97;41.75;100841.91;6273191;28;20043;-77
2021/10/26 10:58:44;;;;;;;24.50;14.73;;;;;;;14.31;42.32;100832.75;6273959;28;20103;-77
2021/10/26 11:01:47;;;;;;;;;;;;;;;14.65;42.18;100831.41;6298269;28;20048;-77
2021/10/26 11:04:47;;;;;;;;;;;;;;;14.88;41.45;100829.03;6275334;28;19982;-77
2021/10/26 11:07:49;;;;;;;49.78;22.63;;;;;;;14.61;40.74;100823.84;6284193;28;20390;-77
2021/10/26 11:10:50;;;;;;;;;;;;;;;14.68;39.70;100819.84;6274506;28;20037;-77
2021/10/26 11:14:18;;;;;;;25.30;13.75;;;;;;;14.62;39.88;100812.38;6273883;28;19920;-77
2021/10/26 11:17:35;;;;;;;26.52;14.05;;;;;;;14.73;39.74;100817.78;6286361;28;20052;-77
2021/10/26 11:20:36;;;;;;;21.70;12.25;;;;;;;14.91;38.81;100811.28;6298556;28;20122;-77
2021/10/26 11:23:45;;;;;;;20.77;12.73;;;;;;;14.76;39.94;100808.84;6296252;28;20049;-77
2021/10/26 11:26:46;;;;;;;23.80;13.40;;;;;;;14.84;38.37;100801.28;6279759;28;20037;-77
2021/10/26 11:29:47;;;;;;;22.95;12.40;;;;;;;14.93;39.39;100792.81;6273475;28;20388;-77
2021/10/26 11:33:10;;;;;;;20.35;10.15;;;;;;;15.06;38.08;100795.44;6273354;28;20090;-77
2021/10/26 11:36:16;;;;;;;18.50;9.40;;;;;;;15.02;36.90;100786.09;6273387;28;20044;-77
2021/10/26 11:39:17;;;;;;;28.35;12.38;;;;;;;15.06;37.88;100788.38;6273230;28;20075;-77
2021/10/26 11:42:18;;;;;;;23.10;10.77;;;;;;;15.20;38.58;100789.25;6272104;28;20049;-77
2021/10/26 11:45:19;;;;;;;22.83;9.70;;;;;;;15.06;38.60;100785.75;6255456;28;20052;-77
2021/10/26 11:48:39;;;;;;;18.08;8.45;;;;;;;15.00;38.20;100787.97;6255154;28;20419;-77
2021/10/26 11:51:51;;;;;;;15.80;7.43;;;;;;;15.08;37.58;100780.41;6271921;28;20491;-77
2021/10/26 11:54:53;;;;;;;14.15;7.75;;;;;;;15.21;37.56;100778.59;6288848;28;20040;-77
2021/10/26 11:57:54;;;;;;;15.27;6.77;;;;;;;15.14;37.32;100779.16;6288570;28;20175;-77
2021/10/26 12:01:00;;;;;;;15.45;6.32;;;;;;;15.18;36.84;100772.75;6255356;28;20039;-77
2021/10/26 12:04:05;;;;;;;10.55;5.25;;;;;;;15.30;37.76;100770.09;6271455;28;20553;-77
2021/10/26 12:07:11;;;;;;;18.67;6.88;;;;;;;15.07;36.87;100763.81;6272871;28;20123;-77
2021/10/26 12:10:15;;;;;;;12.88;5.35;;;;;;;15.13;37.46;100765.16;6272547;28;20120;-77
2021/10/26 12:13:20;;;;;;;8.23;5.35;;;;;;;15.20;35.65;100753.28;6272572;28;20037;-77
2021/10/26 12:16:21;;;;;;;11.85;6.90;;;;;;;14.99;36.55;100760.00;6276507;28;20124;-77
2021/10/26 12:19:28;;;;;;;14.55;6.82;;;;;;;15.14;37.44;100758.13;6272492;28;20040;-77
2021/10/26 12:22:40;;;;;;;17.48;7.57;;;;;;;15.14;37.36;100748.44;6271391;28;20110;-77
2021/10/26 12:25:47;;;;;;;10.82;5.88;;;;;;;15.00;36.70;100761.69;6272820;28;20445;-77
2021/10/26 12:28:56;;;;;;;9.77;5.28;;;;;;;15.09;36.44;100756.66;6255742;28;20048;-77
2021/10/26 12:31:58;;;;;;;11.32;5.72;;;;;;;15.15;36.94;100746.66;6271344;28;20044;-77
2021/10/26 12:34:59;;;;;;;;;;;;;;;15.00;37.54;100754.66;6272626;28;20061;-77
2021/10/26 12:38:10;;;;;;;13.23;6.15;;;;;;;14.95;36.96;100745.38;6275802;28;19921;-77
2021/10/26 12:41:17;;;;;;;12.57;5.60;;;;;;;15.02;37.21;100747.50;6281574;28;20458;-77
2021/10/26 12:44:22;;;;;;;8.60;5.45;;;;;;;14.81;37.52;100748.97;6271947;28;20094;-77
2021/10/26 12:47:23;;;;;;;11.50;6.20;;;;;;;14.82;37.38;100740.13;6270875;28;20067;-77
2021/10/26 12:50:55;;;;;;;9.10;4.57;;;;;;;14.94;36.87;100744.56;6296048;28;20471;-77
2021/10/26 12:53:56;;;;;;;12.52;6.53;;;;;;;14.71;37.04;100749.56;6269244;28;20057;-77
2021/10/26 12:57:00;;;;;;;13.18;7.40;;;;;;;14.69;38.59;100746.22;6272451;28;20072;-77
2021/10/26 13:00:20;;;;;;;14.88;8.10;;;;;;;14.74;39.62;100745.91;6254558;28;20057;-77
2021/10/26 13:03:25;;;;;;;16.95;6.95;;;;;;;14.52;37.69;100730.72;6270776;28;20052;-77
2021/10/26 13:06:37;;;;;;;20.48;7.95;;;;;;;14.56;39.66;100734.00;6270779;28;20471;-77
2021/10/26 13:09:47;;;;;;;23.37;9.73;;;;;;;14.50;38.98;100733.44;6271931;28;20038;-77
2021/10/26 13:13:07;;;;;;;23.42;8.05;;;;;;;14.49;38.29;100731.75;6271791;28;20037;-77
2021/10/26 13:16:31;;;;;;;14.77;8.80;;;;;;;14.45;38.46;100727.66;6270641;28;20098;-77
2021/10/26 13:19:32;;;;;;;15.13;7.63;;;;;;;14.38;38.23;100730.81;6270484;28;20061;-77
2021/10/26 13:22:33;;;;;;;20.23;8.82;;;;;;;14.31;39.41;100725.97;6270460;28;20048;-77
2021/10/26 13:25:40;;;;;;;15.07;8.05;;;;;;;14.15;38.83;100732.31;6270008;28;20041;-77
2021/10/26 13:28:40;;;;;;;18.40;8.35;;;;;;;14.08;40.43;100737.09;6270300;28;20041;-77
2021/10/26 13:31:43;;;;;;;22.40;10.57;;;;;;;13.97;39.90;100729.09;6271139;28;20177;-77
2021/10/26 13:34:44;;;;;;;16.75;9.27;;;;;;;13.94;40.37;100729.28;6270987;28;20048;-77
2021/10/26 13:37:45;;;;;;;18.63;9.55;;;;;;;13.92;40.11;100721.53;6271457;28;20048;-77
2021/10/26 13:40:47;;;;;;;28.67;12.48;;;;;;;13.93;40.28;100730.22;6280627;28;20036;-77
2021/10/26 13:43:49;;;;;;;15.32;8.55;;;;;;;13.79;40.30;100723.25;6294232;28;20040;-77
2021/10/26 13:46:51;;;;;;;25.10;8.35;;;;;;;13.73;39.87;100728.88;6282711;28;20094;-77
2021/10/26 13:49:52;;;;;;;16.63;8.43;;;;;;;13.61;40.31;100725.25;6300434;28;20048;-77
2021/10/26 13:52:52;;;;;;;19.80;8.70;;;;;;;13.58;40.26;100731.53;6299298;28;20118;-77
2021/10/26 13:55:56;;;;;;;16.75;7.75;;;;;;;13.61;41.25;100731.34;6299137;28;20047;-77
2021/10/26 13:58:58;;;;;;;18.42;7.63;;;;;;;13.58;41.68;100730.69;6299456;28;20147;-77
2021/10/26 14:01:59;;;;;;;13.15;7.60;;;;;;;13.54;41.27;100722.16;6300066;28;20115;-77
2021/10/26 14:05:00;;;;;;;21.90;8.00;;;;;;;13.45;41.09;100725.38;6282001;28;20051;-77